createdAt,value
2018-02-10T00:00:06.130Z,32.53
2018-02-10T00:02:33.615Z,33.95
2018-02-10T00:05:01.109Z,34.13
2018-02-10T00:07:28.571Z,29.95
2018-02-10T00:09:56.050Z,29.90
2018-02-10T00:12:23.648Z,28.27
2018-02-10T00:14:51.242Z,30.67
2018-02-10T00:17:18.729Z,27.62
2018-02-10T00:19:46.204Z,26.80
2018-02-10T00:22:25.314Z,29.73
2018-02-10T00:24:52.775Z,30.80
2018-02-10T00:27:20.248Z,29.33
2018-02-10T00:29:47.735Z,27.45
2018-02-10T00:32:15.198Z,27.30
2018-02-10T00:34:42.675Z,24.85
2018-02-10T00:37:10.130Z,26.80
2018-02-10T00:42:11.431Z,25.70
2018-02-10T00:44:38.892Z,26.02
2018-02-10T00:47:06.365Z,25.73
2018-02-10T00:49:33.847Z,27.35
2018-02-10T00:52:01.314Z,25.00
2018-02-10T00:54:28.778Z,27.67
2018-02-10T00:56:56.248Z,26.52
2018-02-10T00:59:23.726Z,26.73
2018-02-10T01:01:51.243Z,25.50
2018-02-10T01:04:18.701Z,25.92
2018-02-10T01:06:46.146Z,23.45
2018-02-10T01:09:13.614Z,24.37
2018-02-10T01:11:41.074Z,25.02
2018-02-10T01:14:08.520Z,26.67
2018-02-10T01:16:36.112Z,25.02
2018-02-10T01:19:03.606Z,24.25
2018-02-10T01:21:31.103Z,24.33
2018-02-10T01:23:58.589Z,23.90
2018-02-10T01:26:26.032Z,23.62
2018-02-10T01:28:53.502Z,23.23
2018-02-10T01:31:20.962Z,24.77
2018-02-10T01:33:48.410Z,22.30
2018-02-10T01:36:15.892Z,23.00
2018-02-10T01:38:43.356Z,22.95
2018-02-10T01:41:10.806Z,22.62
2018-02-10T01:43:38.288Z,21.12
2018-02-10T01:46:05.751Z,21.80
2018-02-10T01:48:33.210Z,21.75
2018-02-10T01:51:00.679Z,22.67
2018-02-10T01:53:28.136Z,21.60
2018-02-10T01:55:55.612Z,21.83
2018-02-10T01:58:23.118Z,21.40
2018-02-10T02:00:50.574Z,21.90
2018-02-10T02:03:18.080Z,22.60
2018-02-10T02:05:45.546Z,22.67
2018-02-10T02:08:13.658Z,22.77
2018-02-10T02:10:41.141Z,22.37
2018-02-10T02:13:08.603Z,21.08
2018-02-10T02:15:36.057Z,21.70
2018-02-10T02:18:03.617Z,23.25
2018-02-10T02:20:31.246Z,25.25
2018-02-10T02:22:58.814Z,22.48
2018-02-10T02:25:26.279Z,23.00
2018-02-10T02:27:53.748Z,23.98
2018-02-10T02:30:21.236Z,25.20
2018-02-10T02:32:48.750Z,24.42
2018-02-10T02:35:16.208Z,24.00
2018-02-10T02:37:43.727Z,23.95
2018-02-10T02:40:11.208Z,25.12
2018-02-10T02:42:39.047Z,26.98
2018-02-10T02:45:06.526Z,25.27
2018-02-10T02:47:33.993Z,24.98
2018-02-10T02:50:01.534Z,26.05
2018-02-10T02:52:29.081Z,25.98
2018-02-10T02:54:56.536Z,25.55
2018-02-10T02:57:23.999Z,26.27
2018-02-10T02:59:51.450Z,24.83
2018-02-10T03:02:18.937Z,25.67
2018-02-10T03:04:46.417Z,24.95
2018-02-10T03:07:13.882Z,26.77
2018-02-10T03:09:41.471Z,27.13
2018-02-10T03:12:09.016Z,25.25
2018-02-10T03:14:36.554Z,26.52
2018-02-10T03:17:04.734Z,27.60
2018-02-10T03:19:32.226Z,28.55
2018-02-10T03:21:59.766Z,28.08
2018-02-10T03:24:27.254Z,26.55
2018-02-10T03:26:54.713Z,29.35
2018-02-10T03:29:22.429Z,28.33
2018-02-10T03:31:50.021Z,26.73
2018-02-10T03:34:18.132Z,26.20
2018-02-10T03:36:48.321Z,28.40
2018-02-10T03:39:15.800Z,28.25
2018-02-10T03:41:43.274Z,27.73
2018-02-10T03:44:10.751Z,26.52
2018-02-10T03:46:38.242Z,28.05
2018-02-10T03:49:05.727Z,28.27
2018-02-10T03:51:33.186Z,28.10
2018-02-10T03:54:00.681Z,28.25
2018-02-10T03:56:28.137Z,28.40
2018-02-10T03:58:55.600Z,29.30
2018-02-10T04:01:23.058Z,27.27
2018-02-10T04:03:50.514Z,29.12
2018-02-10T04:06:18.229Z,29.70
2018-02-10T04:08:45.700Z,30.23
2018-02-10T04:11:13.152Z,28.12
2018-02-10T04:13:40.628Z,27.48
2018-02-10T04:16:08.097Z,27.20
2018-02-10T04:18:35.729Z,28.25
2018-02-10T04:21:03.430Z,26.08
2018-02-10T04:23:33.042Z,26.98
2018-02-10T04:26:00.523Z,25.95
2018-02-10T04:28:28.155Z,26.40
2018-02-10T04:30:55.662Z,27.92
2018-02-10T04:33:23.112Z,25.92
2018-02-10T04:35:50.681Z,24.83
2018-02-10T04:38:18.267Z,26.35
2018-02-10T04:40:45.848Z,25.90
2018-02-10T04:43:13.371Z,28.48
2018-02-10T04:45:41.109Z,28.90
2018-02-10T04:48:08.709Z,27.20
2018-02-10T04:50:36.355Z,28.90
2018-02-10T04:53:04.797Z,27.80
2018-02-10T04:55:32.374Z,28.23
2018-02-10T04:58:00.107Z,29.23
2018-02-10T05:00:27.749Z,30.08
2018-02-10T05:02:55.227Z,27.27
2018-02-10T05:05:22.845Z,29.10
2018-02-10T05:07:50.463Z,27.62
2018-02-10T05:10:18.210Z,29.37
2018-02-10T05:12:45.750Z,29.73
2018-02-10T05:15:13.240Z,29.83
2018-02-10T05:17:40.708Z,27.55
2018-02-10T05:20:08.304Z,26.60
2018-02-10T05:22:36.204Z,28.55
2018-02-10T05:25:03.741Z,28.55
2018-02-10T05:27:31.445Z,29.67
2018-02-10T05:29:58.907Z,27.15
2018-02-10T05:32:26.476Z,26.23
2018-02-10T05:34:53.936Z,27.65
2018-02-10T05:37:21.534Z,27.77
2018-02-10T05:39:48.989Z,28.73
2018-02-10T05:42:16.592Z,29.27
2018-02-10T05:44:44.082Z,27.50
2018-02-10T05:47:11.535Z,27.50
2018-02-10T05:49:40.293Z,26.15
2018-02-10T05:52:07.764Z,27.33
2018-02-10T05:54:35.342Z,27.05
2018-02-10T05:57:04.466Z,27.20
2018-02-10T05:59:32.040Z,26.62
2018-02-10T06:01:59.590Z,27.40
2018-02-10T06:04:27.071Z,27.10
2018-02-10T06:06:54.531Z,25.67
2018-02-10T06:09:22.086Z,29.12
2018-02-10T06:11:49.651Z,28.55
2018-02-10T06:14:17.094Z,27.17
2018-02-10T06:16:44.554Z,27.20
2018-02-10T06:19:11.998Z,28.35
2018-02-10T06:21:39.442Z,27.85
2018-02-10T06:24:06.976Z,26.70
2018-02-10T06:26:34.521Z,26.37
2018-02-10T06:29:01.992Z,23.40
2018-02-10T06:31:29.479Z,27.13
2018-02-10T06:33:56.935Z,27.08
2018-02-10T06:36:24.446Z,26.00
2018-02-10T06:38:51.937Z,25.30
2018-02-10T06:41:19.382Z,25.17
2018-02-10T06:43:46.849Z,24.70
2018-02-10T06:46:14.307Z,25.58
2018-02-10T06:48:41.828Z,25.35
2018-02-10T06:51:09.318Z,24.65
2018-02-10T06:53:36.768Z,23.33
2018-02-10T06:56:04.239Z,24.67
2018-02-10T06:58:31.706Z,25.60
2018-02-10T07:00:59.146Z,26.40
2018-02-10T07:03:26.633Z,25.42
2018-02-10T07:05:54.094Z,26.45
2018-02-10T07:08:21.546Z,24.92
2018-02-10T07:10:49.019Z,25.80
2018-02-10T07:13:16.467Z,28.23
2018-02-10T07:15:43.951Z,25.35
2018-02-10T07:18:11.411Z,25.12
2018-02-10T07:20:38.853Z,25.30
2018-02-10T07:23:06.327Z,24.83
2018-02-10T07:25:33.787Z,24.08
2018-02-10T07:28:01.274Z,21.92
2018-02-10T07:30:28.764Z,23.52
2018-02-10T07:32:56.210Z,22.17
2018-02-10T07:35:23.677Z,24.65
2018-02-10T07:37:51.217Z,22.33
2018-02-10T07:40:18.768Z,20.88
2018-02-10T07:42:46.272Z,22.98
2018-02-10T07:45:13.817Z,21.45
2018-02-10T07:47:41.292Z,19.60
2018-02-10T07:50:08.758Z,23.17
2018-02-10T07:52:36.395Z,21.95
2018-02-10T07:55:03.858Z,24.27
2018-02-10T07:57:31.334Z,23.55
2018-02-10T07:59:58.787Z,22.35
2018-02-10T08:02:26.269Z,22.35
2018-02-10T08:04:53.738Z,23.77
2018-02-10T08:07:21.207Z,22.02
2018-02-10T08:09:48.708Z,22.15
2018-02-10T08:12:16.167Z,21.42
2018-02-10T08:14:43.659Z,23.62
2018-02-10T08:17:11.124Z,25.45
2018-02-10T08:19:38.577Z,23.95
2018-02-10T08:22:06.065Z,22.08
2018-02-10T08:24:33.535Z,23.87
2018-02-10T08:27:00.986Z,24.20
2018-02-10T08:29:28.458Z,23.98
2018-02-10T08:31:55.963Z,23.75
2018-02-10T08:34:23.448Z,25.58
2018-02-10T08:36:50.909Z,23.33
2018-02-10T08:39:18.372Z,24.33
2018-02-10T08:41:45.894Z,24.87
2018-02-10T08:44:13.362Z,25.77
2018-02-10T08:46:40.858Z,24.02
2018-02-10T08:49:08.349Z,24.25
2018-02-10T08:51:35.817Z,26.15
2018-02-10T08:54:03.308Z,26.05
2018-02-10T08:56:30.772Z,26.83
2018-02-10T08:58:58.254Z,31.35
2018-02-10T09:01:25.723Z,27.55
2018-02-10T09:03:53.187Z,27.20
2018-02-10T09:06:20.664Z,24.85
2018-02-10T09:08:48.120Z,25.33
2018-02-10T09:11:15.575Z,25.37
2018-02-10T09:13:43.055Z,27.48
2018-02-10T09:16:10.523Z,25.20
2018-02-10T09:18:38.149Z,27.45
2018-02-10T09:21:05.638Z,27.40
2018-02-10T09:23:33.119Z,25.15
2018-02-10T09:26:00.627Z,22.95
2018-02-10T09:28:28.136Z,25.25
2018-02-10T09:30:55.574Z,26.50
2018-02-10T09:33:23.044Z,23.50
2018-02-10T09:35:50.511Z,25.33
2018-02-10T09:38:17.990Z,22.35
2018-02-10T09:40:45.565Z,23.40
2018-02-10T09:43:13.028Z,20.23
2018-02-10T09:45:40.516Z,21.45
2018-02-10T09:48:07.999Z,19.98
2018-02-10T09:50:35.485Z,21.02
2018-02-10T09:53:02.953Z,20.58
2018-02-10T09:55:30.484Z,21.95
2018-02-10T09:57:57.971Z,23.08
2018-02-10T10:00:25.542Z,21.80
2018-02-10T10:02:53.047Z,22.50
2018-02-10T10:05:20.522Z,22.62
2018-02-10T10:07:48.008Z,22.80
2018-02-10T10:10:15.486Z,22.27
2018-02-10T10:12:42.973Z,22.10
2018-02-10T10:15:10.473Z,20.25
2018-02-10T10:17:37.967Z,22.00
2018-02-10T10:20:05.469Z,22.65
2018-02-10T10:22:32.949Z,22.35
2018-02-10T10:25:00.429Z,21.62
2018-02-10T10:27:27.948Z,22.13
2018-02-10T10:29:55.425Z,20.95
2018-02-10T10:32:22.903Z,21.25
2018-02-10T10:34:50.382Z,22.15
2018-02-10T10:37:17.848Z,22.83
2018-02-10T10:39:45.322Z,20.42
2018-02-10T10:42:12.828Z,21.95
2018-02-10T10:44:40.309Z,22.35
2018-02-10T10:47:07.792Z,23.33
2018-02-10T10:49:35.266Z,23.12
2018-02-10T10:52:02.751Z,22.40
2018-02-10T10:54:30.229Z,22.37
2018-02-10T10:56:57.680Z,21.98
2018-02-10T10:59:25.220Z,23.60
2018-02-10T11:01:52.718Z,21.02
2018-02-10T11:04:20.274Z,23.98
2018-02-10T11:06:47.746Z,24.17
2018-02-10T11:09:15.339Z,21.92
2018-02-10T11:11:42.837Z,21.73
2018-02-10T11:14:10.307Z,25.00
2018-02-10T11:16:37.851Z,25.35
2018-02-10T11:19:05.326Z,24.80
2018-02-10T11:21:32.831Z,26.23
2018-02-10T11:24:00.305Z,26.15
2018-02-10T11:26:27.819Z,25.98
2018-02-10T11:28:55.310Z,24.08
2018-02-10T11:31:22.785Z,25.80
2018-02-10T11:33:50.265Z,25.65
2018-02-10T11:36:17.719Z,22.98
2018-02-10T11:38:45.224Z,25.40
2018-02-10T11:41:12.742Z,25.83
2018-02-10T11:43:40.210Z,23.75
2018-02-10T11:46:07.719Z,23.40
2018-02-10T11:48:35.206Z,26.75
2018-02-10T11:51:02.691Z,24.75
2018-02-10T11:53:30.151Z,24.83
2018-02-10T11:55:57.833Z,25.10
2018-02-10T11:58:25.343Z,25.75
2018-02-10T12:00:52.807Z,25.12
2018-02-10T12:03:20.319Z,26.12
2018-02-10T12:05:47.811Z,25.50
2018-02-10T12:08:15.258Z,24.50
2018-02-10T12:10:42.772Z,25.17
2018-02-10T12:13:10.247Z,24.95
2018-02-10T12:15:37.788Z,24.50
2018-02-10T12:18:05.319Z,25.45
2018-02-10T12:20:32.829Z,25.52
2018-02-10T12:23:00.551Z,26.10
2018-02-10T12:25:28.058Z,25.05
2018-02-10T12:27:55.537Z,26.30
2018-02-10T12:30:23.059Z,24.77
2018-02-10T12:32:51.029Z,26.10
2018-02-10T12:37:52.879Z,26.55
2018-02-10T12:40:21.031Z,26.27
2018-02-10T12:42:55.035Z,27.25
2018-02-10T12:45:23.217Z,25.98
2018-02-10T12:47:56.373Z,29.23
2018-02-10T12:50:24.464Z,31.45
2018-02-10T12:52:55.900Z,28.20
2018-02-10T12:55:25.222Z,28.85
2018-02-10T12:57:53.981Z,28.05
2018-02-10T13:00:23.165Z,29.73
2018-02-10T13:03:04.841Z,28.25
2018-02-10T13:05:33.232Z,29.05
2018-02-10T13:08:01.140Z,31.52
2018-02-10T13:10:29.758Z,28.95
2018-02-10T13:12:58.960Z,29.90
2018-02-10T13:15:28.927Z,31.73
2018-02-10T13:17:56.831Z,28.90
2018-02-10T13:20:27.158Z,29.63
2018-02-10T13:22:57.890Z,31.30
2018-02-10T13:25:25.795Z,33.58
2018-02-10T13:27:53.546Z,30.60
2018-02-10T13:30:21.154Z,27.87
2018-02-10T13:32:48.805Z,30.20
2018-02-10T13:35:16.274Z,28.48
2018-02-10T13:37:43.745Z,29.37
2018-02-10T13:40:11.232Z,27.52
2018-02-10T13:42:41.378Z,30.15
2018-02-10T13:45:08.909Z,29.42
2018-02-10T13:47:36.382Z,32.67
2018-02-10T13:50:03.882Z,28.62
2018-02-10T13:52:31.387Z,27.98
2018-02-10T13:54:58.847Z,29.05
2018-02-10T13:57:27.195Z,29.20
2018-02-10T13:59:54.696Z,31.00
2018-02-10T14:02:22.161Z,29.05
2018-02-10T14:04:49.635Z,29.55
2018-02-10T14:07:17.104Z,31.90
2018-02-10T14:09:44.590Z,31.85
2018-02-10T14:12:12.148Z,35.40
2018-02-10T14:14:39.631Z,40.17
2018-02-10T14:17:07.774Z,33.63
2018-02-10T14:19:35.261Z,35.38
2018-02-10T14:22:02.744Z,37.38
2018-02-10T14:24:30.381Z,37.65
2018-02-10T14:26:57.868Z,38.33
2018-02-10T14:29:25.344Z,30.40
2018-02-10T14:31:52.822Z,37.00
2018-02-10T14:34:20.322Z,33.25
2018-02-10T14:36:47.795Z,34.38
2018-02-10T14:39:15.439Z,32.40
2018-02-10T14:41:42.967Z,31.80
2018-02-10T14:44:10.428Z,33.58
2018-02-10T14:46:37.954Z,34.45
2018-02-10T14:49:05.487Z,31.77
2018-02-10T14:51:32.989Z,32.97
2018-02-10T14:54:00.496Z,31.52
2018-02-10T14:56:27.956Z,31.12
2018-02-10T14:58:55.466Z,30.60
2018-02-10T15:01:22.954Z,31.17
2018-02-10T15:03:50.439Z,33.55
2018-02-10T15:06:17.997Z,34.25
2018-02-10T15:08:45.467Z,32.03
2018-02-10T15:11:12.946Z,35.25
2018-02-10T15:13:40.412Z,34.95
2018-02-10T15:18:42.480Z,36.47
2018-02-10T15:21:09.974Z,34.30
2018-02-10T15:23:37.444Z,39.70
2018-02-10T15:26:04.939Z,34.10
2018-02-10T15:28:32.419Z,36.67
2018-02-10T15:31:11.686Z,35.92
2018-02-10T15:33:50.899Z,37.30
2018-02-10T15:36:18.411Z,35.97
2018-02-10T15:38:45.905Z,34.80
2018-02-10T15:41:13.399Z,37.00
2018-02-10T15:43:40.912Z,32.92
2018-02-10T15:46:08.409Z,34.05
2018-02-10T15:48:35.929Z,33.22
2018-02-10T15:51:03.436Z,34.38
2018-02-10T15:53:30.908Z,34.78
2018-02-10T15:55:58.352Z,34.10
2018-02-10T15:58:25.885Z,36.75
2018-02-10T16:00:53.369Z,35.60
2018-02-10T16:03:20.840Z,35.55
2018-02-10T16:05:48.727Z,33.97
2018-02-10T16:08:16.586Z,35.03
2018-02-10T16:10:44.243Z,35.80
2018-02-10T16:13:11.734Z,37.33
2018-02-10T16:15:39.222Z,36.28
2018-02-10T16:18:06.704Z,37.42
2018-02-10T16:20:34.403Z,34.97
2018-02-10T16:23:01.912Z,37.58
2018-02-10T16:25:29.392Z,37.65
2018-02-10T16:27:56.889Z,36.97
2018-02-10T16:30:24.790Z,37.30
2018-02-10T16:32:52.279Z,37.70
2018-02-10T16:35:19.843Z,38.45
2018-02-10T16:37:47.351Z,40.83
2018-02-10T16:40:14.858Z,37.10
2018-02-10T16:42:42.352Z,34.70
2018-02-10T16:45:09.951Z,36.22
2018-02-10T16:47:37.433Z,36.85
2018-02-10T16:50:04.937Z,38.65
2018-02-10T16:52:32.420Z,36.80
2018-02-10T16:54:59.921Z,36.83
2018-02-10T16:57:27.437Z,36.58
2018-02-10T16:59:54.909Z,39.05
2018-02-10T17:02:22.393Z,39.00
2018-02-10T17:04:50.069Z,35.95
2018-02-10T17:07:17.526Z,36.10
2018-02-10T17:09:45.087Z,35.42
2018-02-10T17:12:12.557Z,34.88
2018-02-10T17:14:40.063Z,34.08
2018-02-10T17:17:07.536Z,36.88
2018-02-10T17:19:35.008Z,39.25
2018-02-10T17:22:02.507Z,37.22
2018-02-10T17:24:30.022Z,37.40
2018-02-10T17:26:57.513Z,38.50
2018-02-10T17:29:25.016Z,38.08
2018-02-10T17:31:52.537Z,35.55
2018-02-10T17:34:20.050Z,39.45
2018-02-10T17:36:47.533Z,36.95
2018-02-10T17:39:15.080Z,39.78
2018-02-10T17:41:42.662Z,38.30
2018-02-10T17:44:10.130Z,38.42
2018-02-10T17:46:37.644Z,38.72
2018-02-10T17:49:05.172Z,38.90
2018-02-10T17:51:32.643Z,40.92
2018-02-10T17:54:00.145Z,40.47
2018-02-10T17:56:27.679Z,39.45
2018-02-10T17:58:55.482Z,41.37
2018-02-10T18:01:22.973Z,40.08
2018-02-10T18:03:50.491Z,40.20
2018-02-10T18:06:17.970Z,38.53
2018-02-10T18:08:45.436Z,40.03
2018-02-10T18:11:12.991Z,40.58
2018-02-10T18:13:40.457Z,40.25
2018-02-10T18:16:08.011Z,37.97
2018-02-10T18:18:35.489Z,40.42
2018-02-10T18:21:03.026Z,39.60
2018-02-10T18:23:30.545Z,40.80
2018-02-10T18:25:58.062Z,41.30
2018-02-10T18:28:25.516Z,39.55
2018-02-10T18:30:52.996Z,38.92
2018-02-10T18:33:20.691Z,39.75
2018-02-10T18:35:48.171Z,41.28
2018-02-10T18:38:15.649Z,41.22
2018-02-10T18:40:43.530Z,38.17
2018-02-10T18:43:11.014Z,40.05
2018-02-10T18:45:38.530Z,37.72
2018-02-10T18:48:05.977Z,38.72
2018-02-10T18:50:33.471Z,40.70
2018-02-10T18:53:00.981Z,39.20
2018-02-10T18:55:28.447Z,36.22
2018-02-10T18:57:55.946Z,36.60
2018-02-10T19:00:23.554Z,34.53
2018-02-10T19:02:51.171Z,40.20
2018-02-10T19:05:18.647Z,40.20
2018-02-10T19:07:46.239Z,41.28
2018-02-10T19:10:13.700Z,39.50
2018-02-10T19:12:41.269Z,39.75
2018-02-10T19:15:08.826Z,39.53
2018-02-10T19:17:36.370Z,40.35
2018-02-10T19:20:03.892Z,41.08
2018-02-10T19:22:31.377Z,40.17
2018-02-10T19:24:58.841Z,40.85
2018-02-10T19:27:26.361Z,40.33
2018-02-10T19:29:53.848Z,38.28
2018-02-10T19:32:21.325Z,40.72
2018-02-10T19:34:48.808Z,42.78
2018-02-10T19:37:16.282Z,40.60
2018-02-10T19:39:43.779Z,39.25
2018-02-10T19:42:11.241Z,40.30
2018-02-10T19:44:38.725Z,40.03
2018-02-10T19:47:06.204Z,39.00
2018-02-10T19:49:34.844Z,40.45
2018-02-10T19:52:02.387Z,39.15
2018-02-10T19:54:29.886Z,39.97
2018-02-10T19:56:57.359Z,39.70
2018-02-10T19:59:24.829Z,39.30
2018-02-10T20:01:52.292Z,39.25
2018-02-10T20:04:19.793Z,38.90
2018-02-10T20:06:47.370Z,37.72
2018-02-10T20:09:14.895Z,38.53
2018-02-10T20:11:42.401Z,40.05
2018-02-10T20:14:09.892Z,39.72
2018-02-10T20:16:37.509Z,37.95
2018-02-10T20:19:05.007Z,37.70
2018-02-10T20:21:32.512Z,36.67
2018-02-10T20:24:00.017Z,37.05
2018-02-10T20:26:27.533Z,36.60
2018-02-10T20:28:55.015Z,39.40
2018-02-10T20:31:22.515Z,37.13
2018-02-10T20:33:49.998Z,44.22
2018-02-10T20:36:17.508Z,43.65
2018-02-10T20:38:44.995Z,38.40
2018-02-10T20:41:12.534Z,37.13
2018-02-10T20:43:40.022Z,36.70
2018-02-10T20:46:07.535Z,38.13
2018-02-10T20:48:35.052Z,37.95
2018-02-10T20:51:02.581Z,38.03
2018-02-10T20:53:30.087Z,36.92
2018-02-10T20:55:57.557Z,37.28
2018-02-10T20:58:25.041Z,36.83
2018-02-10T21:00:52.581Z,34.10
2018-02-10T21:03:20.073Z,38.83
2018-02-10T21:05:47.592Z,36.63
2018-02-10T21:08:15.058Z,35.38
2018-02-10T21:10:42.758Z,34.95
2018-02-10T21:13:10.277Z,34.25
2018-02-10T21:15:37.787Z,32.40
2018-02-10T21:18:05.768Z,34.83
2018-02-10T21:20:33.296Z,34.35
2018-02-10T21:23:00.803Z,32.20
2018-02-10T21:25:28.353Z,31.00
2018-02-10T21:27:55.840Z,31.73
2018-02-10T21:30:23.449Z,30.05
2018-02-10T21:32:51.193Z,32.10
2018-02-10T21:35:18.688Z,29.65
2018-02-10T21:37:46.188Z,33.03
2018-02-10T21:40:13.662Z,31.92
2018-02-10T21:42:41.482Z,32.17
2018-02-10T21:45:09.000Z,28.62
2018-02-10T21:47:36.573Z,32.28
2018-02-10T21:50:04.120Z,32.65
2018-02-10T21:52:31.621Z,31.90
2018-02-10T21:54:59.133Z,31.40
2018-02-10T21:57:26.693Z,32.38
2018-02-10T21:59:54.212Z,32.20
2018-02-10T22:02:21.721Z,31.30
2018-02-10T22:04:49.235Z,33.63
2018-02-10T22:07:16.745Z,31.10
2018-02-10T22:09:44.288Z,30.42
2018-02-10T22:12:11.947Z,32.90
2018-02-10T22:14:39.482Z,33.17
2018-02-10T22:17:07.114Z,33.90
2018-02-10T22:19:34.725Z,30.45
2018-02-10T22:22:02.451Z,32.88
2018-02-10T22:24:29.972Z,31.40
2018-02-10T22:26:57.530Z,30.75
2018-02-10T22:29:25.274Z,30.85
2018-02-10T22:31:52.826Z,31.42
2018-02-10T22:34:20.407Z,30.92
2018-02-10T22:36:47.926Z,31.85
2018-02-10T22:39:16.653Z,30.90
2018-02-10T22:41:44.151Z,28.58
2018-02-10T22:44:11.772Z,33.45
2018-02-10T22:46:40.976Z,29.58
2018-02-10T22:49:08.580Z,30.40
2018-02-10T22:51:36.112Z,32.03
2018-02-10T22:54:03.619Z,31.92
2018-02-10T22:56:31.099Z,32.92
2018-02-10T22:58:58.615Z,29.37
2018-02-10T23:01:26.111Z,30.75
2018-02-10T23:03:53.636Z,27.95
2018-02-10T23:06:21.129Z,29.75
2018-02-10T23:08:48.640Z,30.12
2018-02-10T23:11:16.155Z,28.60
2018-02-10T23:13:43.635Z,29.52
2018-02-10T23:16:11.099Z,28.55
2018-02-10T23:18:38.609Z,29.98
2018-02-10T23:21:06.091Z,29.92
2018-02-10T23:23:33.553Z,31.90
2018-02-10T23:26:01.168Z,31.27
2018-02-10T23:28:28.660Z,31.02
2018-02-10T23:30:56.127Z,31.48
2018-02-10T23:33:23.679Z,29.23
2018-02-10T23:35:51.142Z,28.60
2018-02-10T23:38:18.610Z,28.45
2018-02-10T23:40:46.096Z,27.67
2018-02-10T23:43:13.583Z,28.65
2018-02-10T23:45:41.067Z,29.27
2018-02-10T23:48:08.548Z,28.20
2018-02-10T23:50:36.020Z,29.33
2018-02-10T23:53:03.524Z,29.25
2018-02-10T23:55:31.048Z,27.37
2018-02-10T23:57:58.626Z,29.08
